Time;durP1;ratioP1;P1;durP2;ratioP2;P2;SDS_P1;SDS_P2;PMS_P1;PMS_P2;Temp;Humidity;BMP_temperature;BMP_pressure;BME280_temperature;BME280_humidity;BME280_pressure;Samples;Min_cycle;Max_cycle;Signal;HPM_P1;HPM_P2
2023/03/10 00:01:26;;;;;;;1.60;0.47;;;10.00;99.90;;;;;;4949534;28;20260;-81
2023/03/10 00:03:53;;;;;;;1.65;0.90;;;10.00;99.90;;;;;;4955963;28;20243;-87
2023/03/10 00:06:22;;;;;;;2.00;1.42;;;10.00;99.90;;;;;;4946717;28;20211;-83
2023/03/10 00:08:47;;;;;;;0.95;0.60;;;10.00;99.90;;;;;;4966084;28;20180;-81
2023/03/10 00:11:13;;;;;;;2.30;1.00;;;10.00;99.90;;;;;;4978807;28;20230;-83
2023/03/10 00:13:40;;;;;;;1.15;0.80;;;10.00;99.90;;;;;;4980036;28;20188;-82
2023/03/10 00:16:06;;;;;;;1.00;0.50;;;10.10;99.90;;;;;;4955755;28;20215;-81
2023/03/10 00:18:32;;;;;;;0.82;0.60;;;10.10;99.90;;;;;;4962991;28;20207;-83
2023/03/10 00:20:58;;;;;;;0.50;0.40;;;10.20;99.90;;;;;;4942593;28;21131;-84
2023/03/10 00:23:23;;;;;;;0.70;0.57;;;10.20;99.90;;;;;;4943934;28;20187;-82
2023/03/10 00:25:57;;;;;;;0.80;0.50;;;10.20;99.90;;;;;;4948379;28;20557;-79
2023/03/10 00:28:25;;;;;;;0.75;0.75;;;10.30;99.90;;;;;;4969580;28;20435;-81
2023/03/10 00:31:02;;;;;;;1.60;0.88;;;10.30;99.90;;;;;;4963999;28;20224;-80
2023/03/10 00:33:29;;;;;;;1.42;0.60;;;10.30;99.90;;;;;;4961669;28;20188;-81
2023/03/10 00:36:06;;;;;;;1.77;0.77;;;10.30;99.90;;;;;;4936438;28;20227;-83
2023/03/10 00:38:32;;;;;;;1.77;1.13;;;10.30;99.90;;;;;;4987712;28;20184;-82
2023/03/10 00:41:00;;;;;;;1.27;0.57;;;10.30;99.90;;;;;;4986015;28;20231;-83
2023/03/10 00:43:26;;;;;;;2.38;0.80;;;10.30;99.90;;;;;;4971927;28;20201;-84
2023/03/10 00:45:51;;;;;;;2.90;0.65;;;10.30;99.90;;;;;;4950464;28;20330;-80
2023/03/10 00:48:17;;;;;;;4.50;0.80;;;10.30;99.90;;;;;;4949243;28;20284;-85
2023/03/10 00:50:42;;;;;;;1.30;0.97;;;10.30;99.90;;;;;;4957833;28;20475;-82
2023/03/10 00:53:08;;;;;;;0.80;0.63;;;10.30;99.90;;;;;;4964408;28;20235;-78
2023/03/10 00:55:33;;;;;;;1.23;0.70;;;10.30;99.90;;;;;;4936423;28;20821;-85
2023/03/10 00:57:59;;;;;;;3.60;0.60;;;10.30;99.90;;;;;;4947995;28;20184;-82
2023/03/10 01:00:24;;;;;;;2.63;0.93;;;10.30;99.90;;;;;;4962444;28;20212;-79
2023/03/10 01:02:51;;;;;;;1.57;0.67;;;10.30;99.90;;;;;;4946868;28;20660;-82
2023/03/10 01:05:18;;;;;;;1.00;0.80;;;10.30;99.90;;;;;;4947036;28;20199;-81
2023/03/10 01:07:43;;;;;;;2.08;1.00;;;10.20;99.90;;;;;;4962302;28;20291;-85
2023/03/10 01:10:10;;;;;;;1.43;0.90;;;10.20;99.90;;;;;;4949830;28;20310;-79
2023/03/10 01:12:35;;;;;;;2.10;0.80;;;10.20;99.90;;;;;;4976115;28;20232;-80
2023/03/10 01:15:01;;;;;;;3.43;1.13;;;10.30;99.90;;;;;;4969801;28;20219;-80
2023/03/10 01:17:26;;;;;;;4.77;0.73;;;10.20;99.90;;;;;;4962323;28;20200;-83
2023/03/10 01:19:52;;;;;;;1.10;0.70;;;10.20;99.90;;;;;;4947435;28;20238;-80
2023/03/10 01:22:17;;;;;;;2.40;0.60;;;10.30;99.90;;;;;;4946049;28;20184;-80
2023/03/10 01:24:43;;;;;;;1.67;1.30;;;10.20;99.90;;;;;;4968862;28;20560;-79
2023/03/10 01:27:08;;;;;;;1.43;0.80;;;10.20;99.90;;;;;;4967667;28;20883;-83
2023/03/10 01:29:34;;;;;;;1.60;0.77;;;10.10;99.90;;;;;;4951399;28;20184;-81
2023/03/10 01:31:59;;;;;;;1.87;0.93;;;10.10;99.90;;;;;;4938925;28;20196;-81
2023/03/10 01:34:26;;;;;;;2.20;0.97;;;10.10;99.90;;;;;;4935503;28;20182;-79
2023/03/10 01:36:51;;;;;;;4.90;1.50;;;10.10;99.90;;;;;;4952681;28;20199;-82
2023/03/10 01:39:17;;;;;;;1.23;0.90;;;10.00;99.90;;;;;;4956109;28;20244;-85
2023/03/10 01:41:42;;;;;;;2.00;1.70;;;10.00;99.90;;;;;;4965103;28;20175;-83
2023/03/10 01:44:18;;;;;;;2.47;1.07;;;10.00;99.90;;;;;;4945505;28;20562;-81
2023/03/10 01:46:54;;;;;;;2.80;1.20;;;10.00;99.90;;;;;;4953438;28;20210;-79
2023/03/10 01:49:35;;;;;;;4.82;1.50;;;10.00;99.90;;;;;;4943049;28;20664;-84
2023/03/10 01:52:07;;;;;;;2.35;1.10;;;10.00;99.90;;;;;;4957771;28;20190;-84
2023/03/10 01:54:41;;;;;;;4.30;1.35;;;10.00;99.90;;;;;;4955995;28;20343;-81
2023/03/10 01:57:07;;;;;;;1.83;1.08;;;9.90;99.90;;;;;;4961366;28;20188;-80
2023/03/10 01:59:33;;;;;;;5.43;1.00;;;9.80;99.90;;;;;;4960246;28;20277;-81
2023/03/10 02:02:00;;;;;;;1.80;1.40;;;9.80;99.90;;;;;;4930024;28;20687;-82
2023/03/10 02:04:43;;;;;;;2.90;1.33;;;9.70;99.90;;;;;;4945683;28;20306;-80
2023/03/10 02:07:11;;;;;;;2.38;1.00;;;9.60;99.90;;;;;;4961677;28;20188;-80
2023/03/10 02:09:41;;;;;;;2.65;1.48;;;9.60;99.90;;;;;;4960473;28;20290;-85
2023/03/10 02:12:07;;;;;;;8.13;1.77;;;9.50;99.90;;;;;;4969992;28;20179;-81
2023/03/10 02:14:34;;;;;;;4.05;1.95;;;9.50;99.90;;;;;;4945930;28;20237;-80
2023/03/10 02:17:01;;;;;;;4.30;2.15;;;9.50;99.90;;;;;;4956228;28;20732;-83
2023/03/10 02:19:45;;;;;;;8.23;1.17;;;9.40;99.90;;;;;;4960493;28;20275;-78
2023/03/10 02:22:14;;;;;;;2.70;1.35;;;9.40;99.90;;;;;;4946235;28;20187;-83
2023/03/10 02:24:51;;;;;;;3.17;1.20;;;9.30;99.90;;;;;;4956270;28;21167;-78
2023/03/10 02:27:37;;;;;;;2.95;1.80;;;9.30;99.90;;;;;;4931861;28;20684;-81
2023/03/10 02:30:06;;;;;;;6.93;1.70;;;9.30;99.90;;;;;;4942438;28;20499;-85
2023/03/10 02:32:35;;;;;;;1.70;1.45;;;9.30;99.90;;;;;;4958918;28;20188;-84
2023/03/10 02:35:02;;;;;;;8.88;0.95;;;9.30;99.90;;;;;;4938646;28;20316;-79
2023/03/10 02:37:33;;;;;;;5.28;1.80;;;9.30;99.90;;;;;;4937539;28;20283;-83
2023/03/10 02:39:59;;;;;;;1.10;0.95;;;9.30;99.90;;;;;;4948215;28;22082;-84
2023/03/10 02:42:29;;;;;;;1.83;1.00;;;9.30;99.90;;;;;;4956158;28;20281;-82
2023/03/10 02:44:55;;;;;;;1.60;0.63;;;9.30;99.90;;;;;;4977573;28;20199;-85
2023/03/10 02:47:21;;;;;;;2.08;1.13;;;9.30;99.90;;;;;;4974525;28;20190;-84
2023/03/10 02:49:47;;;;;;;2.47;0.80;;;9.30;99.90;;;;;;4971743;28;20204;-82
2023/03/10 02:52:36;;;;;;;3.05;0.93;;;9.30;99.90;;;;;;4947142;28;20188;-81
2023/03/10 02:55:02;;;;;;;3.70;1.15;;;9.20;99.90;;;;;;4963676;28;20183;-81
2023/03/10 02:57:27;;;;;;;4.20;0.90;;;9.20;99.90;;;;;;4986867;28;20266;-80
2023/03/10 02:59:53;;;;;;;0.60;0.47;;;9.30;99.90;;;;;;4963853;28;20685;-84
2023/03/10 03:02:18;;;;;;;0.90;0.60;;;9.40;99.90;;;;;;4970739;28;20614;-84
2023/03/10 03:04:44;;;;;;;1.07;0.53;;;9.40;99.90;;;;;;4963654;28;20703;-80
2023/03/10 03:07:09;;;;;;;1.20;0.70;;;9.40;99.90;;;;;;4966041;28;20180;-81
2023/03/10 03:09:35;;;;;;;1.47;0.60;;;9.30;99.90;;;;;;4963934;28;20674;-83
2023/03/10 03:12:00;;;;;;;6.07;1.47;;;9.30;99.90;;;;;;4981444;28;20190;-84
2023/03/10 03:14:26;;;;;;;1.23;0.43;;;9.30;99.90;;;;;;4971257;28;20813;-83
2023/03/10 03:16:52;;;;;;;1.23;0.87;;;9.40;99.90;;;;;;4967499;28;20783;-82
2023/03/10 03:19:17;;;;;;;2.93;2.30;;;9.30;99.90;;;;;;4970214;28;20187;-83
2023/03/10 03:21:48;;;;;;;0.77;0.67;;;9.30;99.90;;;;;;4963663;28;21182;-79
2023/03/10 03:24:16;;;;;;;2.38;0.50;;;9.30;99.90;;;;;;4950464;28;20537;-82
2023/03/10 03:26:42;;;;;;;0.80;0.60;;;9.40;99.90;;;;;;4971708;28;20741;-84
2023/03/10 03:29:10;;;;;;;1.90;0.73;;;;;;;;;;4972146;28;20432;-83
2023/03/10 03:31:37;;;;;;;1.38;0.75;;;9.60;99.90;;;;;;4958967;28;20691;-82
2023/03/10 03:34:03;;;;;;;1.75;0.80;;;9.70;99.90;;;;;;4968985;28;20199;-82
2023/03/10 03:36:29;;;;;;;0.65;0.50;;;9.70;99.90;;;;;;4948692;28;20242;-82
2023/03/10 03:38:54;;;;;;;0.87;0.77;;;9.70;99.90;;;;;;4969460;28;20716;-81
2023/03/10 03:41:20;;;;;;;1.20;0.63;;;9.60;99.90;;;;;;4952172;28;20322;-82
2023/03/10 03:43:45;;;;;;;1.47;0.67;;;9.60;99.90;;;;;;4974825;28;20302;-81
2023/03/10 03:46:11;;;;;;;1.47;0.60;;;9.60;99.90;;;;;;4944327;28;20215;-83
2023/03/10 03:48:37;;;;;;;1.13;0.50;;;9.60;99.90;;;;;;4943713;28;20205;-84
2023/03/10 03:51:03;;;;;;;3.87;0.60;;;9.60;99.90;;;;;;4964454;28;20254;-80
2023/03/10 03:53:29;;;;;;;0.40;0.40;;;9.60;99.90;;;;;;4961937;28;22458;-82
2023/03/10 03:55:54;;;;;;;0.98;0.52;;;9.70;99.90;;;;;;4941947;28;20722;-82
2023/03/10 03:58:20;;;;;;;0.90;0.50;;;9.70;99.90;;;;;;4978427;28;20203;-82
2023/03/10 04:00:46;;;;;;;0.80;0.50;;;9.60;99.90;;;;;;4974443;28;20890;-82
2023/03/10 04:03:11;;;;;;;0.90;0.63;;;9.60;99.90;;;;;;4984682;28;20250;-85
2023/03/10 04:05:37;;;;;;;0.93;0.70;;;9.60;99.90;;;;;;4959166;28;21368;-79
2023/03/10 04:08:04;;;;;;;2.15;0.60;;;9.60;99.90;;;;;;4970319;28;20916;-82
2023/03/10 04:10:29;;;;;;;2.25;0.60;;;9.60;99.90;;;;;;4952221;28;20247;-83
2023/03/10 04:12:55;;;;;;;1.03;0.70;;;9.70;99.90;;;;;;4959373;28;20206;-82
2023/03/10 04:15:21;;;;;;;1.23;0.70;;;9.70;99.90;;;;;;4956849;28;20183;-81
2023/03/10 04:17:46;;;;;;;0.60;0.57;;;9.70;99.90;;;;;;4971084;28;20667;-81
2023/03/10 04:20:13;;;;;;;0.50;0.50;;;9.80;99.90;;;;;;4972804;28;20214;-84
2023/03/10 04:22:39;;;;;;;1.58;0.90;;;9.70;99.90;;;;;;4964328;28;20179;-82
2023/03/10 04:25:06;;;;;;;0.60;0.57;;;9.80;99.90;;;;;;4947172;28;21067;-81
2023/03/10 04:27:32;;;;;;;0.80;0.43;;;9.80;99.90;;;;;;4947242;28;20241;-83
2023/03/10 04:29:57;;;;;;;2.43;0.97;;;9.90;99.90;;;;;;4962929;28;20920;-80
2023/03/10 04:32:23;;;;;;;0.40;0.40;;;9.80;99.90;;;;;;4945468;28;21732;-80
2023/03/10 04:34:48;;;;;;;1.40;0.60;;;9.80;99.90;;;;;;4949779;28;20271;-81
2023/03/10 04:37:14;;;;;;;3.27;0.50;;;9.80;99.90;;;;;;4957384;28;20183;-78
2023/03/10 04:39:40;;;;;;;4.07;0.67;;;9.80;99.90;;;;;;4945519;28;20215;-82
2023/03/10 04:42:06;;;;;;;3.17;0.50;;;9.80;99.90;;;;;;4961341;28;20192;-80
2023/03/10 04:44:31;;;;;;;1.10;0.60;;;9.90;99.90;;;;;;4964316;28;20184;-79
2023/03/10 04:46:57;;;;;;;1.50;0.70;;;9.90;99.90;;;;;;4954890;28;20219;-81
2023/03/10 04:49:23;;;;;;;1.58;0.70;;;10.00;99.90;;;;;;4961501;28;22295;-81
2023/03/10 04:51:48;;;;;;;0.83;0.40;;;9.90;99.90;;;;;;4953365;28;20242;-81
2023/03/10 04:54:14;;;;;;;1.23;0.50;;;9.80;99.90;;;;;;4943376;28;20176;-81
2023/03/10 04:56:39;;;;;;;0.90;0.80;;;9.80;99.90;;;;;;4958456;28;20250;-81
2023/03/10 04:59:05;;;;;;;2.77;0.67;;;9.70;99.90;;;;;;4964564;28;20196;-84
2023/03/10 05:01:31;;;;;;;0.97;0.70;;;9.60;99.90;;;;;;4943488;28;21577;-81
2023/03/10 05:04:02;;;;;;;1.23;0.50;;;9.40;99.90;;;;;;4939360;28;20685;-83
2023/03/10 05:06:28;;;;;;;0.75;0.68;;;9.50;99.90;;;;;;4938169;28;20219;-84
2023/03/10 05:08:54;;;;;;;1.20;0.65;;;9.40;99.90;;;;;;4943078;28;20183;-83
2023/03/10 05:11:19;;;;;;;4.83;0.60;;;9.40;99.90;;;;;;4955860;28;20405;-82
2023/03/10 05:13:45;;;;;;;1.37;0.43;;;9.30;99.90;;;;;;4979564;28;20183;-81
2023/03/10 05:16:16;;;;;;;2.83;0.60;;;9.30;99.90;;;;;;4962225;28;20837;-81
2023/03/10 05:18:42;;;;;;;3.03;0.73;;;9.20;99.90;;;;;;4966135;28;20283;-83
2023/03/10 05:21:08;;;;;;;0.93;0.67;;;9.10;99.90;;;;;;4959528;28;21051;-85
2023/03/10 05:23:33;;;;;;;2.20;1.10;;;9.00;99.90;;;;;;4948799;28;20274;-83
2023/03/10 05:26:06;;;;;;;1.07;0.60;;;8.90;99.90;;;;;;4946586;28;20463;-82
2023/03/10 05:28:32;;;;;;;2.55;1.23;;;8.80;99.90;;;;;;4962876;28;20182;-83
2023/03/10 05:30:58;;;;;;;1.77;0.67;;;8.70;99.90;;;;;;4973575;28;20198;-82
2023/03/10 05:33:23;;;;;;;14.97;6.77;;;8.70;99.90;;;;;;4955134;28;20442;-81
2023/03/10 05:35:49;;;;;;;1.97;1.50;;;8.60;99.90;;;;;;4946779;28;22194;-84
2023/03/10 05:38:15;;;;;;;1.80;0.90;;;8.60;99.90;;;;;;4943254;28;20223;-82
2023/03/10 05:40:41;;;;;;;1.50;0.85;;;8.50;99.90;;;;;;4937912;28;20247;-81
2023/03/10 05:43:07;;;;;;;1.20;1.00;;;8.50;99.90;;;;;;4935990;28;20219;-80
2023/03/10 05:45:33;;;;;;;1.23;1.13;;;8.50;99.90;;;;;;4933160;28;20856;-82
2023/03/10 05:47:59;;;;;;;1.43;0.73;;;8.40;99.90;;;;;;4947276;28;20203;-82
2023/03/10 05:50:24;;;;;;;1.73;0.73;;;8.40;99.90;;;;;;4926416;28;20214;-80
2023/03/10 05:52:50;;;;;;;1.27;0.70;;;8.50;99.90;;;;;;4936411;28;20533;-81
2023/03/10 05:55:18;;;;;;;0.80;0.60;;;8.50;99.90;;;;;;4955357;28;20975;-83
2023/03/10 05:57:44;;;;;;;1.10;0.60;;;8.40;99.90;;;;;;4957604;28;20222;-82
2023/03/10 06:00:11;;;;;;;0.95;0.65;;;8.40;99.90;;;;;;4965355;28;21269;-81
2023/03/10 06:02:38;;;;;;;2.58;0.68;;;8.50;99.90;;;;;;4958281;28;20186;-80
2023/03/10 06:05:05;;;;;;;1.75;0.70;;;8.60;99.90;;;;;;4966735;28;20195;-81
2023/03/10 06:07:31;;;;;;;0.50;0.50;;;8.70;99.90;;;;;;4932362;28;20194;-83
2023/03/10 06:09:57;;;;;;;1.02;0.40;;;8.90;99.90;;;;;;4963117;28;20432;-84
2023/03/10 06:12:23;;;;;;;1.67;0.57;;;8.90;99.90;;;;;;4963381;28;20610;-85
2023/03/10 06:14:48;;;;;;;0.77;0.77;;;8.90;99.90;;;;;;4973171;28;20175;-85
2023/03/10 06:17:14;;;;;;;2.80;0.70;;;9.00;99.90;;;;;;4963565;28;20205;-86
2023/03/10 06:19:39;;;;;;;5.10;1.20;;;8.90;99.90;;;;;;4962207;28;20282;-84
2023/03/10 06:22:05;;;;;;;0.67;0.57;;;9.00;99.90;;;;;;4956876;28;20202;-84
2023/03/10 06:24:30;;;;;;;3.70;0.83;;;9.00;99.90;;;;;;4961814;28;20179;-82
2023/03/10 06:26:56;;;;;;;0.77;0.47;;;9.10;99.90;;;;;;4951913;28;20278;-86
2023/03/10 06:29:21;;;;;;;4.93;0.97;;;9.20;99.90;;;;;;4938558;28;20632;-85
2023/03/10 06:31:47;;;;;;;1.63;0.60;;;9.20;99.90;;;;;;4974405;28;21791;-83
2023/03/10 06:34:12;;;;;;;2.03;0.67;;;9.20;99.90;;;;;;4960620;28;20192;-85
2023/03/10 06:36:39;;;;;;;1.33;0.70;;;9.20;99.90;;;;;;4958208;28;20183;-83
2023/03/10 06:39:05;;;;;;;2.45;1.10;;;9.20;99.90;;;;;;4954004;28;20188;-83
2023/03/10 06:42:02;;;;;;;1.98;0.60;;;9.20;99.90;;;;;;4983148;28;20225;-82
2023/03/10 06:44:28;;;;;;;1.85;1.00;;;;;;;;;;4957301;28;20193;-80
2023/03/10 06:46:54;;;;;;;1.03;0.50;;;;;;;;;;4963765;28;20293;-83
2023/03/10 06:49:19;;;;;;;0.80;0.60;;;9.30;99.90;;;;;;4974203;28;20430;-83
2023/03/10 06:51:45;;;;;;;3.63;0.70;;;9.30;99.90;;;;;;4953911;28;20537;-80
2023/03/10 06:54:10;;;;;;;2.40;0.57;;;9.40;99.90;;;;;;4947193;28;23679;-82
2023/03/10 06:56:36;;;;;;;2.77;0.67;;;9.40;99.90;;;;;;4947799;28;20187;-81
2023/03/10 06:59:01;;;;;;;2.50;1.30;;;10.00;99.90;;;;;;4949710;28;20190;-84
2023/03/10 07:01:32;;;;;;;2.30;0.50;;;11.10;99.90;;;;;;4932408;28;20252;-81
2023/03/10 07:03:58;;;;;;;2.55;1.35;;;;;;;;;;4958067;28;20276;-80
2023/03/10 07:06:24;;;;;;;1.60;0.88;;;11.10;99.90;;;;;;4962572;28;20302;-81
2023/03/10 07:08:50;;;;;;;1.80;0.80;;;10.90;99.90;;;;;;4963192;28;20191;-79
2023/03/10 07:11:16;;;;;;;2.63;0.80;;;10.60;99.90;;;;;;4949430;28;20458;-81
2023/03/10 07:13:42;;;;;;;4.15;1.10;;;10.50;99.90;;;;;;4963822;28;20266;-83
2023/03/10 07:16:08;;;;;;;3.10;0.67;;;10.30;99.90;;;;;;4969971;28;20195;-82
2023/03/10 07:18:34;;;;;;;1.20;0.83;;;10.20;99.90;;;;;;4948829;28;20195;-82
2023/03/10 07:20:59;;;;;;;6.60;1.10;;;10.20;99.90;;;;;;4953280;28;20239;-82
2023/03/10 07:23:25;;;;;;;1.13;0.77;;;10.20;99.90;;;;;;4960969;28;20463;-80
2023/03/10 07:25:56;;;;;;;4.23;0.50;;;10.10;99.90;;;;;;4978792;28;20212;-79
2023/03/10 07:28:23;;;;;;;3.90;0.57;;;10.10;99.90;;;;;;4993426;28;20180;-81
2023/03/10 07:30:49;;;;;;;2.65;0.68;;;10.10;99.90;;;;;;4957826;28;20211;-78
2023/03/10 07:33:15;;;;;;;2.23;0.60;;;10.50;99.90;;;;;;4967305;28;20184;-82
2023/03/10 07:35:41;;;;;;;2.08;0.90;;;11.60;99.90;;;;;;4981480;28;20429;-82
2023/03/10 07:38:07;;;;;;;1.53;0.50;;;13.40;99.90;;;;;;4956910;28;20263;-84
2023/03/10 07:40:33;;;;;;;1.13;0.60;;;;;;;;;;4968430;28;20489;-82
2023/03/10 07:42:59;;;;;;;4.90;0.60;;;15.70;99.90;;;;;;4959273;28;20431;-82
2023/03/10 07:45:25;;;;;;;3.30;0.50;;;17.00;99.90;;;;;;4968105;28;20493;-82
2023/03/10 07:47:52;;;;;;;0.73;0.73;;;17.10;99.90;;;;;;4954184;28;20180;-81
2023/03/10 07:50:18;;;;;;;1.60;0.63;;;17.20;99.90;;;;;;4966333;28;20474;-80
2023/03/10 07:52:44;;;;;;;1.07;0.40;;;16.80;99.90;;;;;;4959587;28;21168;-82
2023/03/10 07:55:10;;;;;;;2.60;0.70;;;15.60;99.90;;;;;;4956419;28;20494;-83
2023/03/10 07:57:36;;;;;;;1.37;0.67;;;13.90;99.90;;;;;;4951271;28;20438;-84
2023/03/10 08:00:02;;;;;;;1.10;0.60;;;13.00;99.90;;;;;;4952626;28;20454;-85
2023/03/10 08:02:27;;;;;;;4.05;0.85;;;12.00;99.90;;;;;;4962718;28;20179;-83
2023/03/10 08:04:53;;;;;;;2.30;0.60;;;11.50;99.90;;;;;;4968026;28;20199;-83
2023/03/10 08:07:18;;;;;;;3.10;0.67;;;11.10;99.90;;;;;;4970893;28;20187;-82
2023/03/10 08:09:51;;;;;;;0.70;0.50;;;10.90;99.90;;;;;;4966594;28;20211;-82
2023/03/10 08:12:18;;;;;;;0.60;0.43;;;10.70;99.90;;;;;;4971677;28;20743;-82
2023/03/10 08:14:44;;;;;;;2.70;0.40;;;10.80;99.90;;;;;;4962372;28;20208;-82
2023/03/10 08:17:09;;;;;;;3.33;0.70;;;10.50;99.90;;;;;;4970843;28;20226;-80
2023/03/10 08:19:37;;;;;;;1.00;0.80;;;10.50;99.90;;;;;;4951647;28;20435;-80
2023/03/10 08:22:02;;;;;;;3.15;0.52;;;10.40;99.90;;;;;;4948630;28;20265;-83
2023/03/10 08:24:28;;;;;;;0.50;0.30;;;10.20;99.90;;;;;;4968310;28;22192;-82
2023/03/10 08:26:53;;;;;;;1.37;0.50;;;9.80;99.90;;;;;;4955297;28;20206;-82
2023/03/10 08:29:22;;;;;;;3.33;1.10;;;9.30;99.90;;;;;;4946366;28;20303;-81
2023/03/10 08:31:48;;;;;;;3.45;0.82;;;8.30;99.90;;;;;;4945110;28;20267;-81
2023/03/10 08:34:15;;;;;;;3.00;0.73;;;8.20;99.90;;;;;;4944563;28;20682;-79
2023/03/10 08:36:41;;;;;;;6.47;1.45;;;8.20;99.90;;;;;;4971484;28;20672;-84
2023/03/10 08:39:08;;;;;;;4.45;1.55;;;8.20;99.90;;;;;;4950392;28;20197;-81
2023/03/10 08:41:41;;;;;;;5.50;1.63;;;8.10;99.90;;;;;;4936111;28;20706;-82
2023/03/10 08:44:07;;;;;;;3.80;1.23;;;8.00;99.90;;;;;;4970864;28;20310;-80
2023/03/10 08:46:33;;;;;;;12.60;2.50;;;8.00;99.90;;;;;;4948573;28;20692;-82
2023/03/10 08:48:59;;;;;;;4.38;1.40;;;8.10;99.90;;;;;;4950122;28;20435;-83
2023/03/10 08:51:26;;;;;;;4.32;1.30;;;8.20;99.90;;;;;;4944427;28;20210;-82
2023/03/10 08:53:52;;;;;;;9.50;2.00;;;9.20;99.90;;;;;;4953581;28;20183;-80
2023/03/10 08:56:20;;;;;;;11.43;1.60;;;10.70;99.90;;;;;;4941796;28;20176;-84
2023/03/10 08:58:46;;;;;;;6.95;1.42;;;11.80;99.90;;;;;;4942618;28;20455;-85
2023/03/10 09:01:13;;;;;;;6.33;1.00;;;11.90;99.90;;;;;;4965653;28;20697;-85
2023/03/10 09:03:42;;;;;;;4.13;1.30;;;11.10;99.90;;;;;;4946279;28;20434;-84
2023/03/10 09:06:08;;;;;;;8.50;2.65;;;11.20;99.90;;;;;;4929888;28;20219;-82
2023/03/10 09:08:34;;;;;;;2.43;0.93;;;11.30;99.90;;;;;;4962896;28;20201;-84
2023/03/10 09:11:00;;;;;;;5.43;1.30;;;11.40;99.90;;;;;;4952171;28;20306;-83
2023/03/10 09:13:26;;;;;;;7.13;1.30;;;11.10;99.90;;;;;;4972806;28;20186;-81
2023/03/10 09:15:51;;;;;;;4.07;1.50;;;11.10;99.90;;;;;;4950841;28;20550;-82
2023/03/10 09:18:18;;;;;;;5.37;1.23;;;11.00;99.90;;;;;;4954404;28;20207;-82
2023/03/10 09:20:44;;;;;;;6.13;1.42;;;11.30;99.90;;;;;;4965003;28;20298;-83
2023/03/10 09:23:11;;;;;;;5.43;1.33;;;11.40;99.90;;;;;;4962444;28;20318;-82
2023/03/10 09:25:40;;;;;;;4.18;0.90;;;10.90;99.90;;;;;;4966018;28;20467;-81
2023/03/10 09:28:07;;;;;;;2.13;0.90;;;10.60;99.90;;;;;;4945549;28;20265;-82
2023/03/10 09:30:37;;;;;;;2.08;0.80;;;10.50;99.90;;;;;;4950576;28;20215;-82
2023/03/10 09:33:04;;;;;;;4.28;1.30;;;10.80;99.90;;;;;;4952756;28;20246;-81
2023/03/10 09:35:32;;;;;;;2.58;1.10;;;11.40;99.90;;;;;;4967646;28;20401;-79
2023/03/10 09:37:57;;;;;;;5.70;1.48;;;11.60;99.90;;;;;;4986349;28;20191;-78
2023/03/10 09:40:23;;;;;;;4.07;0.93;;;11.40;99.90;;;;;;4975811;28;20264;-79
2023/03/10 09:43:04;;;;;;;6.57;1.17;;;11.20;99.90;;;;;;4959784;28;20218;-83
2023/03/10 09:45:46;;;;;;;10.05;2.05;;;11.60;99.90;;;;;;4970242;28;20494;-83
2023/03/10 09:48:33;;;;;;;8.15;1.58;;;11.60;99.90;;;;;;4968596;28;20194;-80
2023/03/10 09:51:04;;;;;;;4.93;0.98;;;11.80;99.90;;;;;;4943682;28;20779;-81
2023/03/10 09:53:58;;;;;;;7.90;1.80;;;12.00;99.90;;;;;;4961174;28;20187;-78
2023/03/10 09:56:34;;;;;;;2.40;1.67;;;12.30;99.90;;;;;;4967965;28;20189;-82
2023/03/10 09:59:10;;;;;;;8.82;1.30;;;12.70;99.90;;;;;;4954938;28;20651;-82
2023/03/10 10:01:36;;;;;;;4.43;1.35;;;12.00;99.90;;;;;;4950535;28;20301;-80
2023/03/10 10:04:20;;;;;;;0.60;0.60;;;11.70;99.90;;;;;;4951134;28;20219;-81
2023/03/10 10:06:47;;;;;;;2.42;0.57;;;11.70;99.90;;;;;;4944652;28;20195;-83
2023/03/10 10:09:33;;;;;;;3.97;2.58;;;11.50;99.90;;;;;;4943017;28;20188;-83
2023/03/10 10:12:13;;;;;;;1.95;0.80;;;11.30;99.90;;;;;;4964635;28;20213;-83
2023/03/10 10:14:40;;;;;;;4.68;1.23;;;10.90;99.90;;;;;;4954838;28;20258;-79
2023/03/10 10:17:27;;;;;;;1.27;0.70;;;10.90;99.90;;;;;;4954287;28;20253;-83
2023/03/10 10:19:53;;;;;;;2.78;0.90;;;10.80;99.90;;;;;;4962096;28;20206;-80
2023/03/10 10:22:30;;;;;;;1.43;0.97;;;11.00;99.90;;;;;;4961654;28;20188;-80
2023/03/10 10:25:08;;;;;;;3.25;1.10;;;11.20;99.90;;;;;;4958197;28;20188;-81
2023/03/10 10:27:38;;;;;;;3.00;1.00;;;11.10;99.90;;;;;;4955083;28;20221;-81
2023/03/10 10:30:28;;;;;;;5.20;1.15;;;11.00;99.90;;;;;;4937272;28;20209;-80
2023/03/10 10:32:59;;;;;;;3.17;1.02;;;10.80;99.90;;;;;;4968423;28;21120;-83
2023/03/10 10:35:27;;;;;;;3.42;1.33;;;10.90;99.90;;;;;;4968100;28;20190;-79
2023/03/10 10:38:10;;;;;;;2.05;0.70;;;11.20;99.90;;;;;;4947411;28;20195;-79
2023/03/10 10:40:50;;;;;;;0.70;0.50;;;11.70;99.90;;;;;;4955115;28;20202;-81
2023/03/10 10:43:20;;;;;;;1.50;0.85;;;11.70;99.90;;;;;;4951715;28;20920;-79
2023/03/10 10:45:55;;;;;;;2.17;0.60;;;11.60;99.90;;;;;;4947882;28;20207;-81
2023/03/10 10:48:44;;;;;;;1.52;0.95;;;11.30;99.90;;;;;;4951235;28;20282;-82
2023/03/10 10:51:37;;;;;;;3.45;0.60;;;10.90;99.90;;;;;;4933246;28;20688;-82
2023/03/10 10:54:27;;;;;;;2.45;1.52;;;10.60;99.90;;;;;;4955780;28;21360;-81
2023/03/10 10:56:55;;;;;;;1.73;1.00;;;10.50;99.90;;;;;;4953045;28;20190;-81
2023/03/10 10:59:26;;;;;;;1.00;0.50;;;10.20;99.90;;;;;;4952779;28;20638;-81
2023/03/10 11:01:54;;;;;;;2.40;1.02;;;10.20;99.90;;;;;;4975780;28;20179;-82
2023/03/10 11:04:22;;;;;;;0.98;0.80;;;10.30;99.90;;;;;;4950979;28;20920;-83
2023/03/10 11:06:49;;;;;;;1.92;0.70;;;10.50;99.90;;;;;;4962806;28;20271;-82
2023/03/10 11:09:22;;;;;;;2.05;0.60;;;10.60;99.90;;;;;;4961214;28;20898;-83
2023/03/10 11:11:54;;;;;;;1.88;0.50;;;11.10;99.90;;;;;;4964094;28;20238;-81
2023/03/10 11:14:36;;;;;;;1.55;0.60;;;11.50;99.90;;;;;;4955398;28;20188;-82
2023/03/10 11:17:32;;;;;;;1.45;0.50;;;11.40;99.90;;;;;;4969672;28;20632;-82
2023/03/10 11:20:25;;;;;;;2.25;0.40;;;11.50;99.90;;;;;;4916755;28;20222;-82
2023/03/10 11:23:02;;;;;;;2.15;1.05;;;11.40;99.90;;;;;;4950976;28;20193;-82
2023/03/10 11:25:47;;;;;;;2.92;0.95;;;11.80;99.90;;;;;;4956198;28;20241;-79
2023/03/10 11:28:23;;;;;;;0.68;0.60;;;11.90;99.90;;;;;;4946963;28;20665;-80
2023/03/10 11:31:10;;;;;;;1.50;0.75;;;12.20;99.90;;;;;;4968699;28;20264;-84
2023/03/10 11:33:47;;;;;;;1.40;0.40;;;12.50;99.90;;;;;;4957990;28;20184;-81
2023/03/10 11:36:35;;;;;;;1.95;0.60;;;12.20;99.90;;;;;;4982766;28;20198;-85
2023/03/10 11:39:21;;;;;;;4.07;0.60;;;12.40;99.90;;;;;;4962532;28;20187;-83
2023/03/10 11:41:52;;;;;;;1.33;0.55;;;11.70;99.90;;;;;;4950102;28;20606;-78
2023/03/10 11:44:35;;;;;;;1.52;0.40;;;11.70;99.90;;;;;;4951021;28;20191;-83
2023/03/10 11:47:12;;;;;;;1.27;0.52;;;11.30;99.90;;;;;;4992983;28;20203;-81
2023/03/10 11:49:40;;;;;;;0.95;0.35;;;11.30;99.90;;;;;;4952862;28;20183;-82
2023/03/10 11:52:16;;;;;;;1.70;0.30;;;11.20;99.90;;;;;;4970582;28;20251;-81
2023/03/10 11:54:46;;;;;;;2.05;0.60;;;11.20;99.90;;;;;;4974325;28;20167;-82
2023/03/10 11:57:17;;;;;;;1.60;0.55;;;11.00;99.90;;;;;;4969805;28;20191;-80
2023/03/10 11:59:58;;;;;;;1.50;0.45;;;11.20;99.90;;;;;;4968082;28;20200;-80
2023/03/10 12:02:26;;;;;;;3.47;0.47;;;11.20;99.90;;;;;;4949859;28;20184;-82
2023/03/10 12:04:56;;;;;;;1.30;0.40;;;10.80;99.90;;;;;;4974273;28;20192;-82
2023/03/10 12:07:39;;;;;;;1.25;0.60;;;10.60;99.90;;;;;;4965221;28;20275;-82
2023/03/10 12:10:11;;;;;;;0.60;0.50;;;10.60;99.90;;;;;;4954458;28;20211;-81
2023/03/10 12:12:39;;;;;;;1.20;0.60;;;10.90;99.90;;;;;;4956199;28;20192;-82
2023/03/10 12:15:10;;;;;;;0.40;0.30;;;10.80;99.90;;;;;;4948829;28;20203;-80
2023/03/10 12:17:38;;;;;;;1.80;0.75;;;11.10;99.90;;;;;;4971151;28;20222;-78
2023/03/10 12:20:12;;;;;;;0.93;0.50;;;11.50;99.90;;;;;;4957188;28;20207;-83
2023/03/10 12:22:38;;;;;;;0.52;0.50;;;11.30;99.90;;;;;;4957274;28;20179;-80
2023/03/10 12:25:04;;;;;;;4.27;0.80;;;11.20;99.90;;;;;;4962632;28;20188;-79
2023/03/10 12:27:50;;;;;;;0.80;0.63;;;11.10;99.90;;;;;;4954531;28;20210;-82
2023/03/10 12:30:42;;;;;;;1.85;0.60;;;10.70;99.90;;;;;;4955421;28;20688;-82
2023/03/10 12:33:36;;;;;;;1.95;0.68;;;10.70;99.90;;;;;;4976464;28;20191;-81
2023/03/10 12:36:23;;;;;;;4.05;0.70;;;11.20;99.90;;;;;;4976132;28;20184;-80
2023/03/10 12:39:14;;;;;;;0.90;0.50;;;11.00;99.90;;;;;;4973116;28;20559;-80
2023/03/10 12:41:51;;;;;;;0.68;0.68;;;10.80;99.90;;;;;;4966766;28;21298;-82
2023/03/10 12:44:22;;;;;;;0.43;0.40;;;10.90;99.90;;;;;;4954306;28;20187;-81
2023/03/10 12:47:09;;;;;;;1.30;0.40;;;10.90;99.90;;;;;;4954231;28;20214;-82
2023/03/10 12:49:44;;;;;;;1.35;0.45;;;10.70;99.90;;;;;;4976511;28;20186;-82
2023/03/10 12:52:34;;;;;;;0.60;0.40;;;10.70;99.90;;;;;;4976948;28;20182;-81
2023/03/10 12:55:25;;;;;;;0.60;0.43;;;10.80;99.90;;;;;;4977159;28;20223;-83
2023/03/10 12:58:08;;;;;;;1.40;0.50;;;10.60;99.90;;;;;;4956611;28;20195;-83
2023/03/10 13:00:54;;;;;;;0.60;0.40;;;10.40;99.90;;;;;;4957259;28;20294;-82
2023/03/10 13:03:41;;;;;;;0.52;0.30;;;10.50;99.90;;;;;;4978499;28;20213;-80
2023/03/10 13:06:38;;;;;;;2.15;0.70;;;10.70;99.90;;;;;;4977269;28;20279;-80